createdAt,value
2023-04-21T00:01:48.542Z,87.56
2023-04-21T00:04:20.416Z,87.64
2023-04-21T00:06:50.988Z,87.80
2023-04-21T00:09:24.188Z,88.15
2023-04-21T00:11:54.612Z,88.33
2023-04-21T00:14:25.177Z,89.61
2023-04-21T00:16:57.171Z,89.29
2023-04-21T00:19:27.517Z,90.13
2023-04-21T00:21:59.155Z,90.56
2023-04-21T00:24:34.471Z,90.89
2023-04-21T00:27:04.770Z,91.20
2023-04-21T00:29:35.297Z,91.50
2023-04-21T00:32:10.310Z,91.50
2023-04-21T00:34:42.709Z,91.79
2023-04-21T00:37:13.108Z,91.50
2023-04-21T00:39:46.390Z,91.60
2023-04-21T00:42:19.126Z,91.37
2023-04-21T00:44:49.538Z,91.55
2023-04-21T00:47:19.895Z,91.34
2023-04-21T00:49:50.292Z,91.63
2023-04-21T00:52:21.676Z,91.76
2023-04-21T00:54:54.689Z,91.90
2023-04-21T00:57:25.109Z,91.92
2023-04-21T01:00:11.014Z,91.83
2023-04-21T01:02:42.774Z,91.60
2023-04-21T01:05:14.890Z,91.76
2023-04-21T01:07:45.388Z,91.20
2023-04-21T01:10:18.913Z,90.94
2023-04-21T01:12:51.066Z,90.86
2023-04-21T01:15:22.261Z,91.40
2023-04-21T01:17:54.548Z,91.22
2023-04-21T01:20:25.111Z,91.57
2023-04-21T01:22:58.094Z,91.17
2023-04-21T01:25:28.966Z,91.25
2023-04-21T01:27:59.770Z,90.98
2023-04-21T01:30:30.561Z,90.79
2023-04-21T01:33:12.072Z,90.87
2023-04-21T01:35:50.476Z,90.30
2023-04-21T01:38:26.354Z,90.21
2023-04-21T01:40:57.568Z,89.48
2023-04-21T01:43:28.939Z,89.11
2023-04-21T01:46:00.411Z,88.85
2023-04-21T01:48:31.025Z,89.02
2023-04-21T01:51:03.219Z,90.08
2023-04-21T01:53:36.515Z,90.14
2023-04-21T01:56:07.417Z,90.57
2023-04-21T01:58:37.775Z,90.07
2023-04-21T02:01:08.567Z,90.62
2023-04-21T02:03:39.754Z,91.66
2023-04-21T02:06:11.956Z,91.32
2023-04-21T02:08:46.705Z,90.79
2023-04-21T02:11:18.389Z,90.70
2023-04-21T02:13:48.899Z,91.25
2023-04-21T02:16:20.812Z,90.48
2023-04-21T02:18:52.553Z,91.33
2023-04-21T02:21:23.747Z,90.60
2023-04-21T02:23:59.549Z,90.87
2023-04-21T02:26:30.165Z,90.43
2023-04-21T02:29:00.923Z,90.13
2023-04-21T02:31:31.636Z,90.09
2023-04-21T02:34:02.038Z,90.07
2023-04-21T02:36:32.585Z,90.00
2023-04-21T02:39:05.969Z,90.05
2023-04-21T02:41:36.680Z,90.06
2023-04-21T02:44:09.903Z,90.19
2023-04-21T02:46:43.930Z,90.33
2023-04-21T02:49:16.584Z,90.11
2023-04-21T02:51:47.157Z,89.47
2023-04-21T02:54:20.246Z,89.42
2023-04-21T02:56:53.723Z,89.05
2023-04-21T02:59:24.092Z,88.77
2023-04-21T03:01:55.183Z,89.13
2023-04-21T03:04:26.635Z,88.73
2023-04-21T03:06:57.187Z,89.00
2023-04-21T03:09:30.477Z,89.01
2023-04-21T03:12:01.652Z,89.28
2023-04-21T03:14:32.182Z,88.88
2023-04-21T03:17:02.983Z,89.51
2023-04-21T03:19:40.652Z,88.95
2023-04-21T03:22:11.198Z,89.02
2023-04-21T03:24:44.391Z,88.46
2023-04-21T03:27:14.988Z,87.99
2023-04-21T03:29:45.540Z,88.86
2023-04-21T03:32:16.178Z,88.07
2023-04-21T03:34:46.745Z,87.36
2023-04-21T03:37:17.413Z,87.04
2023-04-21T03:39:50.857Z,86.96
2023-04-21T03:42:26.409Z,86.54
2023-04-21T03:44:56.817Z,86.73
2023-04-21T03:47:30.406Z,86.75
2023-04-21T03:50:07.561Z,86.27
2023-04-21T03:52:38.214Z,85.97
2023-04-21T03:55:12.461Z,85.98
2023-04-21T03:57:46.894Z,85.58
2023-04-21T04:00:21.459Z,84.48
2023-04-21T04:02:52.075Z,84.78
2023-04-21T04:05:22.944Z,84.31
2023-04-21T04:07:53.772Z,84.79
2023-04-21T04:10:28.065Z,84.60
2023-04-21T04:12:58.845Z,84.62
2023-04-21T04:15:29.249Z,84.48
2023-04-21T04:17:59.566Z,84.62
2023-04-21T04:20:29.868Z,84.74
2023-04-21T04:23:00.284Z,84.98
2023-04-21T04:25:33.617Z,85.13
2023-04-21T04:28:04.094Z,85.09
2023-04-21T04:30:35.592Z,85.45
2023-04-21T04:33:06.204Z,85.12
2023-04-21T04:35:39.604Z,84.85
2023-04-21T04:38:10.414Z,84.80
2023-04-21T04:40:43.902Z,84.43
2023-04-21T04:43:17.250Z,83.90
2023-04-21T04:45:47.715Z,83.62
2023-04-21T04:48:18.171Z,83.60
2023-04-21T04:50:48.754Z,83.27
2023-04-21T04:53:19.118Z,83.05
2023-04-21T04:55:52.199Z,82.70
2023-04-21T04:58:23.026Z,82.71
2023-04-21T05:00:53.427Z,82.74
2023-04-21T05:03:23.918Z,82.64
2023-04-21T05:05:54.572Z,82.54
2023-04-21T05:08:24.939Z,81.62
2023-04-21T05:11:00.373Z,81.01
2023-04-21T05:13:30.799Z,81.12
2023-04-21T05:16:02.430Z,80.56
2023-04-21T05:18:32.833Z,79.45
2023-04-21T05:21:03.048Z,79.01
2023-04-21T05:23:33.283Z,78.81
2023-04-21T05:26:06.212Z,78.68
2023-04-21T05:28:36.846Z,79.35
2023-04-21T05:31:07.211Z,79.77
2023-04-21T05:33:37.446Z,79.25
2023-04-21T05:36:10.503Z,77.62
2023-04-21T05:38:41.178Z,77.70
2023-04-21T05:41:16.306Z,78.04
2023-04-21T05:43:47.820Z,77.34
2023-04-21T05:46:18.187Z,77.86
2023-04-21T05:48:48.386Z,76.89
2023-04-21T05:51:20.053Z,75.81
2023-04-21T05:53:53.313Z,76.34
2023-04-21T05:56:26.265Z,76.06
2023-04-21T05:58:56.483Z,74.37
2023-04-21T06:01:26.764Z,74.65
2023-04-21T06:03:59.309Z,73.37
2023-04-21T06:06:30.187Z,72.74
2023-04-21T06:09:03.123Z,73.14
2023-04-21T06:11:38.248Z,72.77
2023-04-21T06:14:08.615Z,71.00
2023-04-21T06:16:39.028Z,70.87
2023-04-21T06:19:09.454Z,69.07
2023-04-21T06:21:39.755Z,69.00
2023-04-21T06:24:10.735Z,68.48
2023-04-21T06:26:43.570Z,66.28
2023-04-21T06:29:13.751Z,63.03
2023-04-21T06:31:44.089Z,61.25
2023-04-21T06:34:14.305Z,60.54
2023-04-21T06:36:44.682Z,59.21
2023-04-21T06:39:14.908Z,59.87
2023-04-21T06:41:47.756Z,59.67
2023-04-21T06:44:18.299Z,59.83
2023-04-21T06:46:49.018Z,56.33
2023-04-21T06:49:19.678Z,57.06
2023-04-21T06:51:50.141Z,55.02
2023-04-21T06:54:20.426Z,53.29
2023-04-21T06:56:58.368Z,52.75
2023-04-21T06:59:28.732Z,52.34
2023-04-21T07:02:01.931Z,51.31
2023-04-21T07:04:32.655Z,50.67
2023-04-21T07:07:03.316Z,50.22
2023-04-21T07:09:36.727Z,50.83
2023-04-21T07:12:09.875Z,49.33
2023-04-21T07:14:40.244Z,47.59
2023-04-21T07:17:10.722Z,47.20
2023-04-21T07:19:41.069Z,47.66
2023-04-21T07:22:11.561Z,46.88
2023-04-21T07:24:41.909Z,46.95
2023-04-21T07:27:15.317Z,45.52
2023-04-21T07:29:45.562Z,44.82
2023-04-21T07:32:15.949Z,45.39
2023-04-21T07:34:49.957Z,43.65
2023-04-21T07:37:20.959Z,43.25
2023-04-21T07:39:51.420Z,42.93
2023-04-21T07:42:24.739Z,42.78
2023-04-21T07:44:56.352Z,42.11
2023-04-21T07:47:26.809Z,42.39
2023-04-21T07:49:58.723Z,40.93
2023-04-21T07:52:29.230Z,39.86
2023-04-21T07:54:59.499Z,39.92
2023-04-21T07:57:34.776Z,39.95
2023-04-21T08:00:05.208Z,39.62
2023-04-21T08:02:42.950Z,39.06
2023-04-21T08:05:13.485Z,39.15
2023-04-21T08:07:43.989Z,38.97
2023-04-21T08:10:14.491Z,38.30
2023-04-21T08:12:50.397Z,38.05
2023-04-21T08:15:20.639Z,37.04
2023-04-21T08:17:50.957Z,35.22
2023-04-21T08:20:21.223Z,34.84
2023-04-21T08:22:51.632Z,33.20
2023-04-21T08:25:24.192Z,32.06
2023-04-21T08:27:57.147Z,31.38
2023-04-21T08:30:28.621Z,31.10
2023-04-21T08:32:58.983Z,29.84
2023-04-21T08:35:32.298Z,29.74
2023-04-21T08:38:03.169Z,29.35
2023-04-21T08:40:36.709Z,28.22
2023-04-21T08:43:11.184Z,28.13
2023-04-21T08:45:42.891Z,27.90
2023-04-21T08:48:18.912Z,28.12
2023-04-21T08:50:50.585Z,27.05
2023-04-21T08:53:21.114Z,27.50
2023-04-21T08:56:03.643Z,27.06
2023-04-21T08:58:43.357Z,26.74
2023-04-21T09:01:13.662Z,27.04
2023-04-21T09:03:44.158Z,27.32
2023-04-21T09:06:15.367Z,26.14
2023-04-21T09:08:46.689Z,26.15
2023-04-21T09:11:17.892Z,26.24
2023-04-21T09:13:51.152Z,27.25
2023-04-21T09:16:24.023Z,26.13
2023-04-21T09:18:54.462Z,25.93
2023-04-21T09:21:32.416Z,25.99
2023-04-21T09:24:08.715Z,25.37
2023-04-21T09:26:39.163Z,25.97
2023-04-21T09:29:12.373Z,25.63
2023-04-21T09:31:42.742Z,25.79
2023-04-21T09:34:21.799Z,25.14
2023-04-21T09:36:52.204Z,25.72
2023-04-21T09:39:40.566Z,26.64
2023-04-21T09:42:17.025Z,26.37
2023-04-21T09:44:56.282Z,25.62
2023-04-21T09:47:38.715Z,25.62
2023-04-21T09:50:12.539Z,25.03
2023-04-21T09:52:43.645Z,27.36
2023-04-21T09:55:15.860Z,27.04
2023-04-21T09:57:48.633Z,26.99
2023-04-21T10:00:25.647Z,27.52
2023-04-21T10:02:57.400Z,27.34
2023-04-21T10:05:28.176Z,29.03
2023-04-21T10:07:58.966Z,29.22
2023-04-21T10:10:32.104Z,29.02
2023-04-21T10:13:05.884Z,29.00
2023-04-21T10:15:41.917Z,28.94
2023-04-21T10:18:30.291Z,29.19
2023-04-21T10:21:02.264Z,29.97
2023-04-21T10:23:39.952Z,29.03
2023-04-21T10:26:13.328Z,29.33
2023-04-21T10:28:48.990Z,29.44
2023-04-21T10:31:33.003Z,28.83
2023-04-21T10:34:19.609Z,28.37
2023-04-21T10:37:12.012Z,28.38
2023-04-21T10:39:58.114Z,27.12
2023-04-21T10:42:30.357Z,26.55
2023-04-21T10:45:21.506Z,25.92
2023-04-21T10:47:56.185Z,26.01
2023-04-21T10:50:28.502Z,26.78
2023-04-21T10:53:00.938Z,26.24
2023-04-21T10:55:32.718Z,25.38
2023-04-21T10:58:06.101Z,26.15
2023-04-21T11:00:38.138Z,26.03
2023-04-21T11:03:11.409Z,25.88
2023-04-21T11:05:42.692Z,25.41
2023-04-21T11:08:15.366Z,25.05
2023-04-21T11:10:47.138Z,24.81
2023-04-21T11:13:17.354Z,24.53
2023-04-21T11:15:59.550Z,23.04
2023-04-21T11:18:53.383Z,23.20
2023-04-21T11:21:25.026Z,22.98
2023-04-21T11:23:56.638Z,23.27
2023-04-21T11:26:34.751Z,24.13
2023-04-21T11:29:09.432Z,24.72
2023-04-21T11:31:40.835Z,25.02
2023-04-21T11:34:15.612Z,25.31
2023-04-21T11:36:46.904Z,25.88
2023-04-21T11:39:21.652Z,25.85
2023-04-21T11:41:54.139Z,24.84
2023-04-21T11:44:35.132Z,23.85
2023-04-21T11:47:16.253Z,24.69
2023-04-21T11:49:55.372Z,25.31
2023-04-21T11:52:26.942Z,24.99
2023-04-21T11:55:02.241Z,25.09
2023-04-21T11:57:33.739Z,25.04
2023-04-21T12:00:04.835Z,22.69
2023-04-21T12:02:35.734Z,21.71
2023-04-21T12:05:10.445Z,21.84
2023-04-21T12:07:42.202Z,22.68
2023-04-21T12:10:13.869Z,23.63
2023-04-21T12:12:45.073Z,21.66
2023-04-21T12:15:20.344Z,20.60
2023-04-21T12:17:52.347Z,19.59
2023-04-21T12:20:27.634Z,19.59
2023-04-21T12:22:57.946Z,19.71
2023-04-21T12:25:29.268Z,19.48
2023-04-21T12:28:01.967Z,19.80
2023-04-21T12:30:33.515Z,19.05
2023-04-21T12:33:06.313Z,20.60
2023-04-21T12:35:39.413Z,19.32
2023-04-21T12:38:09.788Z,20.15
2023-04-21T12:40:42.811Z,21.14
2023-04-21T12:43:13.071Z,22.18
2023-04-21T12:45:43.357Z,21.12
2023-04-21T12:48:16.319Z,20.25
2023-04-21T12:50:49.629Z,20.58
2023-04-21T12:53:19.868Z,20.90
2023-04-21T12:56:03.462Z,21.85
2023-04-21T12:58:37.136Z,22.78
2023-04-21T13:01:08.542Z,24.21
2023-04-21T13:03:39.039Z,25.04
2023-04-21T13:06:14.868Z,24.01
2023-04-21T13:08:45.055Z,23.90
2023-04-21T13:11:15.277Z,22.59
2023-04-21T13:13:45.865Z,20.97
2023-04-21T13:16:18.213Z,20.60
2023-04-21T13:18:48.962Z,19.89
2023-04-21T13:21:21.822Z,21.71
2023-04-21T13:23:52.028Z,22.49
2023-04-21T13:26:22.254Z,23.55
2023-04-21T13:28:52.586Z,24.02
2023-04-21T13:31:22.924Z,24.69
2023-04-21T13:33:54.160Z,25.83
2023-04-21T13:36:27.230Z,26.02
2023-04-21T13:38:57.608Z,27.07
2023-04-21T13:41:31.042Z,25.59
2023-04-21T13:44:01.225Z,25.56
2023-04-21T13:46:31.806Z,26.14
2023-04-21T13:49:05.347Z,25.59
2023-04-21T13:51:38.246Z,24.42
2023-04-21T13:54:10.239Z,22.62
2023-04-21T13:56:41.155Z,21.86
2023-04-21T13:59:11.567Z,20.66
2023-04-21T14:01:41.935Z,20.16
2023-04-21T14:04:12.417Z,19.59
2023-04-21T14:06:45.491Z,19.93
2023-04-21T14:09:15.952Z,19.41
2023-04-21T14:11:46.354Z,18.99
2023-04-21T14:14:24.193Z,18.71
2023-04-21T14:17:01.983Z,19.10
2023-04-21T14:19:33.001Z,20.19
2023-04-21T14:22:05.984Z,21.03
2023-04-21T14:24:36.279Z,20.11
2023-04-21T14:27:06.673Z,20.15
2023-04-21T14:29:37.056Z,20.15
2023-04-21T14:32:07.381Z,20.08
2023-04-21T14:34:37.640Z,20.22
2023-04-21T14:37:10.747Z,19.79
2023-04-21T14:39:41.492Z,19.15
2023-04-21T14:42:11.689Z,20.47
2023-04-21T14:44:41.974Z,22.79
2023-04-21T14:47:12.516Z,22.63
2023-04-21T14:49:42.741Z,21.48
2023-04-21T14:52:15.752Z,21.34
2023-04-21T14:54:46.047Z,21.75
2023-04-21T14:57:20.609Z,20.01
2023-04-21T14:59:52.821Z,19.84
2023-04-21T15:02:23.871Z,20.13
2023-04-21T15:04:54.303Z,20.00
2023-04-21T15:07:27.275Z,19.89
2023-04-21T15:09:57.621Z,19.81
2023-04-21T15:12:28.164Z,20.50
2023-04-21T15:14:58.846Z,19.67
2023-04-21T15:17:29.303Z,19.20
2023-04-21T15:19:59.740Z,19.25
2023-04-21T15:22:33.140Z,18.79
2023-04-21T15:25:03.392Z,19.93
2023-04-21T15:27:33.788Z,19.48
2023-04-21T15:30:04.707Z,20.05
2023-04-21T15:32:35.031Z,20.14
2023-04-21T15:35:05.304Z,20.89
2023-04-21T15:37:38.372Z,22.22
2023-04-21T15:40:10.400Z,23.74
2023-04-21T15:42:40.744Z,24.79
2023-04-21T15:45:12.552Z,25.97
2023-04-21T15:47:42.852Z,26.53
2023-04-21T15:50:16.320Z,27.36
2023-04-21T15:52:49.196Z,28.25
2023-04-21T15:55:21.626Z,28.00
2023-04-21T15:57:51.983Z,28.45
2023-04-21T16:00:22.737Z,28.29
2023-04-21T16:02:53.199Z,27.98
2023-04-21T16:05:27.466Z,28.34
2023-04-21T16:08:01.874Z,28.78
2023-04-21T16:10:32.195Z,29.38
2023-04-21T16:13:02.435Z,29.75
2023-04-21T16:15:32.683Z,29.90
2023-04-21T16:18:06.655Z,30.01
2023-04-21T16:20:37.406Z,30.35
2023-04-21T16:23:10.324Z,30.59
2023-04-21T16:25:40.766Z,30.47
2023-04-21T16:28:11.726Z,30.63
2023-04-21T16:30:43.777Z,30.30
2023-04-21T16:33:14.787Z,29.94
2023-04-21T16:35:45.172Z,29.94
2023-04-21T16:38:18.119Z,30.38
2023-04-21T16:40:48.999Z,30.62
2023-04-21T16:43:19.583Z,30.79
2023-04-21T16:45:49.865Z,31.16
2023-04-21T16:48:20.266Z,31.24
2023-04-21T16:50:54.503Z,31.38
2023-04-21T16:53:38.794Z,31.43
2023-04-21T16:56:13.074Z,31.26
2023-04-21T16:58:43.325Z,31.46
2023-04-21T17:01:13.618Z,31.70
2023-04-21T17:03:44.457Z,31.75
2023-04-21T17:06:19.642Z,31.70
2023-04-21T17:08:59.705Z,32.07
2023-04-21T17:11:31.574Z,32.18
2023-04-21T17:14:01.937Z,32.40
2023-04-21T17:16:32.229Z,32.78
2023-04-21T17:19:02.760Z,33.20
2023-04-21T17:21:33.650Z,32.96
2023-04-21T17:24:06.916Z,32.93
2023-04-21T17:26:37.801Z,33.09
2023-04-21T17:29:08.593Z,33.22
2023-04-21T17:31:38.820Z,33.43
2023-04-21T17:34:09.300Z,33.71
2023-04-21T17:36:40.357Z,33.63
2023-04-21T17:39:14.309Z,33.82
2023-04-21T17:41:46.534Z,33.88
2023-04-21T17:44:16.749Z,33.51
2023-04-21T17:46:47.345Z,34.01
2023-04-21T17:49:18.489Z,34.02
2023-04-21T17:51:48.872Z,34.28
2023-04-21T17:54:21.977Z,34.28
2023-04-21T17:56:52.338Z,34.39
2023-04-21T17:59:22.589Z,34.49
2023-04-21T18:01:52.908Z,34.67
2023-04-21T18:04:27.507Z,34.87
2023-04-21T18:06:59.821Z,34.72
2023-04-21T18:09:32.767Z,34.89
2023-04-21T18:12:02.968Z,35.21
2023-04-21T18:14:35.774Z,35.46
2023-04-21T18:17:06.228Z,35.48
2023-04-21T18:19:36.568Z,35.57
2023-04-21T18:22:09.283Z,35.83
2023-04-21T18:24:42.122Z,36.07
2023-04-21T18:27:14.155Z,36.28
2023-04-21T18:29:44.385Z,36.60
2023-04-21T18:32:14.735Z,36.48
2023-04-21T18:34:45.075Z,36.76
2023-04-21T18:37:15.316Z,37.13
2023-04-21T18:39:48.241Z,37.13
2023-04-21T18:42:18.719Z,37.36
2023-04-21T18:44:50.075Z,37.69
2023-04-21T18:47:20.860Z,37.83
2023-04-21T18:49:51.792Z,37.86
2023-04-21T18:52:27.114Z,37.78
2023-04-21T18:54:59.977Z,38.34
2023-04-21T18:57:30.738Z,38.33
2023-04-21T19:00:01.169Z,38.51
2023-04-21T19:02:32.509Z,38.66
2023-04-21T19:05:03.464Z,38.97
2023-04-21T19:07:33.917Z,38.78
2023-04-21T19:10:07.538Z,39.17
2023-04-21T19:12:37.844Z,39.11
2023-04-21T19:15:09.380Z,39.15
2023-04-21T19:17:39.870Z,39.28
2023-04-21T19:20:11.618Z,39.36
2023-04-21T19:22:42.051Z,39.46
2023-04-21T19:25:15.119Z,39.35
2023-04-21T19:27:46.615Z,39.31
2023-04-21T19:30:17.483Z,39.36
2023-04-21T19:32:49.200Z,40.42
2023-04-21T19:35:19.726Z,39.44
2023-04-21T19:37:50.253Z,39.39
2023-04-21T19:40:23.317Z,39.41
2023-04-21T19:42:53.634Z,39.21
2023-04-21T19:45:23.998Z,39.62
2023-04-21T19:47:54.846Z,39.56
2023-04-21T19:50:25.594Z,39.49
2023-04-21T19:52:55.961Z,39.54
2023-04-21T19:55:31.150Z,39.55
2023-04-21T19:58:01.684Z,39.58
2023-04-21T20:00:32.120Z,39.23
2023-04-21T20:03:02.634Z,39.47
2023-04-21T20:05:32.909Z,39.83
2023-04-21T20:08:03.145Z,39.72
2023-04-21T20:10:37.990Z,39.85
2023-04-21T20:13:08.213Z,39.79
2023-04-21T20:15:39.548Z,40.04
2023-04-21T20:18:10.201Z,40.02
2023-04-21T20:20:40.800Z,40.32
2023-04-21T20:23:11.051Z,40.02
2023-04-21T20:25:44.167Z,40.02
2023-04-21T20:28:14.414Z,40.15
2023-04-21T20:30:45.132Z,40.63
2023-04-21T20:33:17.383Z,40.38
2023-04-21T20:35:48.059Z,40.38
2023-04-21T20:38:19.041Z,40.30
2023-04-21T20:40:52.628Z,40.38
2023-04-21T20:43:23.225Z,40.44
2023-04-21T20:45:53.752Z,40.28
2023-04-21T20:48:24.107Z,40.60
2023-04-21T20:50:54.376Z,40.49
2023-04-21T20:53:24.905Z,40.63
2023-04-21T20:55:57.866Z,40.71
2023-04-21T20:58:28.232Z,40.69
2023-04-21T21:00:58.646Z,40.76
2023-04-21T21:03:29.239Z,40.97
2023-04-21T21:05:59.601Z,41.04
2023-04-21T21:08:30.159Z,41.35
2023-04-21T21:11:03.151Z,41.57
2023-04-21T21:13:35.499Z,41.43
2023-04-21T21:16:05.769Z,41.73
2023-04-21T21:18:36.340Z,41.97
2023-04-21T21:21:06.986Z,42.25
2023-04-21T21:23:40.983Z,42.18
2023-04-21T21:26:13.960Z,42.23
2023-04-21T21:28:44.354Z,41.86
2023-04-21T21:31:15.635Z,42.37
2023-04-21T21:33:45.988Z,42.42
2023-04-21T21:36:19.524Z,42.57
2023-04-21T21:38:50.014Z,43.28
2023-04-21T21:41:23.441Z,43.65
2023-04-21T21:43:56.555Z,43.77
2023-04-21T21:46:27.008Z,43.78
2023-04-21T21:48:57.390Z,44.12
2023-04-21T21:51:29.124Z,44.17
2023-04-21T21:54:02.516Z,44.97
2023-04-21T21:56:35.599Z,44.43
2023-04-21T21:59:06.550Z,44.17
2023-04-21T22:01:37.132Z,45.30
2023-04-21T22:04:07.931Z,45.65
2023-04-21T22:06:38.469Z,45.03
2023-04-21T22:09:09.274Z,45.07
2023-04-21T22:11:42.126Z,44.91
2023-04-21T22:14:22.817Z,44.72
2023-04-21T22:16:54.117Z,44.71
2023-04-21T22:19:24.426Z,44.87
2023-04-21T22:21:54.907Z,45.37
2023-04-21T22:24:26.601Z,45.91
2023-04-21T22:26:59.462Z,45.78
2023-04-21T22:29:29.808Z,45.94
2023-04-21T22:32:00.087Z,46.05
2023-04-21T22:34:30.615Z,46.60
2023-04-21T22:37:01.213Z,46.01
2023-04-21T22:39:31.888Z,46.47
2023-04-21T22:42:04.854Z,46.64
2023-04-21T22:44:35.127Z,46.58
2023-04-21T22:47:06.082Z,45.72
2023-04-21T22:49:39.093Z,45.96
2023-04-21T22:52:09.719Z,46.19
2023-04-21T22:54:41.374Z,46.66
2023-04-21T22:57:16.627Z,46.79
2023-04-21T22:59:47.097Z,47.16
2023-04-21T23:02:17.574Z,47.25
2023-04-21T23:04:47.951Z,47.38
2023-04-21T23:07:20.318Z,47.55
2023-04-21T23:09:51.150Z,47.34
2023-04-21T23:12:24.233Z,47.43
2023-04-21T23:14:54.903Z,47.50
2023-04-21T23:17:25.175Z,47.23
2023-04-21T23:19:55.642Z,47.48
2023-04-21T23:22:26.371Z,49.49
2023-04-21T23:24:59.132Z,49.35
2023-04-21T23:27:31.975Z,49.91
2023-04-21T23:30:02.382Z,50.57
2023-04-21T23:32:32.793Z,50.75
2023-04-21T23:35:03.060Z,50.91
2023-04-21T23:37:33.610Z,50.63
2023-04-21T23:40:09.258Z,50.70
2023-04-21T23:42:42.517Z,49.64
2023-04-21T23:45:18.405Z,51.81
2023-04-21T23:47:48.763Z,50.96
2023-04-21T23:50:19.123Z,51.34
2023-04-21T23:52:49.382Z,51.80
2023-04-21T23:55:19.737Z,51.99
2023-04-21T23:57:52.730Z,52.63
